ITY1419 LXGB-LIRQ
Flight info
| Callsign | ITY1419 |
|---|---|
| Flight time | 2h 6m |
| Altitude | 36000 |
| Route | PIMOS M445 SOPET M985 BCN N870 PIVUS/N0465F300 N870 DIBER UN870 SOSUR DCT NOSTA DCT GAPMI |
| Aircraft | A320/M-SDE3FGHIRWY/LB1 |
Departure
| Time | 2026-04-24 07:17 |
|---|---|
| Airport | Gibraltar Airport (LXGB) |
Arrival
| Time | 2026-04-24 09:24 |
|---|---|
| Airport | Florence Airport, Peretola (LIRQ) |
| Time | Latitude | Longitude | Altitude | Speed | Heading |
|---|---|---|---|---|---|
| 2026-04-24 07:00 | 36.15304 | -5.34673 | 19 ft | 0 kts | 0° |
| 2026-04-24 07:12 | 36.15298 | -5.34673 | 18 ft | 2 kts | 0° |
| 2026-04-24 07:12 | 36.15281 | -5.34674 | 20 ft | 2 kts | 0° |
| 2026-04-24 07:12 | 36.15264 | -5.34674 | 18 ft | 2 kts | 0° |
| 2026-04-24 07:12 | 36.15248 | -5.34674 | 19 ft | 2 kts | 27° |
| 2026-04-24 07:13 | 36.15234 | -5.34683 | 20 ft | 2 kts | 28° |
| 2026-04-24 07:13 | 36.15224 | -5.34693 | 22 ft | 0 kts | 83° |
| 2026-04-24 07:15 | 36.15230 | -5.34624 | 22 ft | 16 kts | 85° |
| 2026-04-24 07:15 | 36.15237 | -5.34424 | 15 ft | 29 kts | 88° |
| 2026-04-24 07:15 | 36.15246 | -5.34168 | 17 ft | 29 kts | 86° |
| 2026-04-24 07:16 | 36.15201 | -5.33967 | 16 ft | 23 kts | 149° |
| 2026-04-24 07:16 | 36.15156 | -5.33986 | 17 ft | 3 kts | 264° |
| 2026-04-24 07:16 | 36.15153 | -5.34019 | 17 ft | 11 kts | 266° |
| 2026-04-24 07:16 | 36.15139 | -5.34463 | 17 ft | 90 kts | 268° |
| 2026-04-24 07:17 | 36.15105 | -5.35498 | 25 ft | 148 kts | 267° |
| 2026-04-24 07:17 | 36.15068 | -5.36900 | 357 ft | 170 kts | 268° |
| 2026-04-24 07:17 | 36.14826 | -5.38301 | 1123 ft | 163 kts | 236° |
| 2026-04-24 07:17 | 36.13954 | -5.39030 | 1892 ft | 149 kts | 187° |
| 2026-04-24 07:18 | 36.12992 | -5.38679 | 2366 ft | 153 kts | 134° |
| 2026-04-24 07:18 | 36.12589 | -5.37441 | 2682 ft | 167 kts | 86° |
| 2026-04-24 07:18 | 36.13060 | -5.36048 | 2784 ft | 196 kts | 47° |
| 2026-04-24 07:18 | 36.14094 | -5.34720 | 2736 ft | 235 kts | 46° |
| 2026-04-24 07:19 | 36.15272 | -5.33049 | 2697 ft | 280 kts | 52° |
| 2026-04-24 07:19 | 36.16464 | -5.30943 | 2773 ft | 316 kts | 57° |
| 2026-04-24 07:19 | 36.17609 | -5.28467 | 2922 ft | 345 kts | 63° |
| 2026-04-24 07:19 | 36.18637 | -5.25668 | 3133 ft | 368 kts | 68° |
| 2026-04-24 07:20 | 36.19505 | -5.22655 | 3483 ft | 370 kts | 71° |
| 2026-04-24 07:20 | 36.20342 | -5.19642 | 4000 ft | 371 kts | 71° |
| 2026-04-24 07:20 | 36.21162 | -5.16689 | 4438 ft | 346 kts | 71° |
| 2026-04-24 07:20 | 36.22074 | -5.14133 | 4907 ft | 305 kts | 56° |
| 2026-04-24 07:21 | 36.23262 | -5.12146 | 5401 ft | 276 kts | 52° |
| 2026-04-24 07:21 | 36.24412 | -5.10258 | 5942 ft | 274 kts | 53° |
| 2026-04-24 07:21 | 36.25558 | -5.08366 | 6464 ft | 275 kts | 53° |
| 2026-04-24 07:21 | 36.26707 | -5.06460 | 6998 ft | 277 kts | 53° |
| 2026-04-24 07:22 | 36.27865 | -5.04537 | 7514 ft | 279 kts | 53° |
| 2026-04-24 07:22 | 36.29030 | -5.02599 | 8048 ft | 282 kts | 53° |
| 2026-04-24 07:22 | 36.30206 | -5.00643 | 8583 ft | 284 kts | 53° |
| 2026-04-24 07:22 | 36.31376 | -4.98696 | 9102 ft | 286 kts | 53° |
| 2026-04-24 07:23 | 36.32570 | -4.96711 | 9633 ft | 288 kts | 53° |
| 2026-04-24 07:23 | 36.33775 | -4.94707 | 10168 ft | 293 kts | 53° |
| 2026-04-24 07:23 | 36.35022 | -4.92630 | 10700 ft | 306 kts | 53° |
| 2026-04-24 07:23 | 36.36314 | -4.90472 | 11234 ft | 318 kts | 53° |
| 2026-04-24 07:24 | 36.37656 | -4.88227 | 11767 ft | 329 kts | 53° |
| 2026-04-24 07:24 | 36.39043 | -4.85907 | 12297 ft | 340 kts | 53° |
| 2026-04-24 07:24 | 36.40470 | -4.83518 | 12829 ft | 349 kts | 53° |
| 2026-04-24 07:24 | 36.41935 | -4.81062 | 13358 ft | 358 kts | 53° |
| 2026-04-24 07:25 | 36.43432 | -4.78549 | 13890 ft | 365 kts | 53° |
| 2026-04-24 07:25 | 36.44961 | -4.75986 | 14420 ft | 372 kts | 53° |
| 2026-04-24 07:25 | 36.46516 | -4.73381 | 14949 ft | 379 kts | 53° |
| 2026-04-24 07:25 | 36.48097 | -4.70731 | 15478 ft | 384 kts | 53° |
| 2026-04-24 07:26 | 36.49695 | -4.68049 | 16006 ft | 388 kts | 53° |
| 2026-04-24 07:26 | 36.51285 | -4.65375 | 16526 ft | 391 kts | 53° |
| 2026-04-24 07:26 | 36.52910 | -4.62637 | 17047 ft | 395 kts | 53° |
| 2026-04-24 07:26 | 36.54550 | -4.59877 | 17599 ft | 399 kts | 53° |
| 2026-04-24 07:27 | 36.56206 | -4.57089 | 18153 ft | 402 kts | 53° |
| 2026-04-24 07:27 | 36.57877 | -4.54275 | 18697 ft | 405 kts | 53° |
| 2026-04-24 07:27 | 36.59557 | -4.51445 | 19225 ft | 409 kts | 53° |
| 2026-04-24 07:27 | 36.61255 | -4.48581 | 19728 ft | 412 kts | 53° |
| 2026-04-24 07:28 | 36.62959 | -4.45697 | 20231 ft | 415 kts | 53° |
| 2026-04-24 07:28 | 36.64672 | -4.42799 | 20705 ft | 417 kts | 53° |
| 2026-04-24 07:28 | 36.66398 | -4.39878 | 21162 ft | 420 kts | 53° |
| 2026-04-24 07:28 | 36.68137 | -4.36932 | 21616 ft | 423 kts | 53° |
| 2026-04-24 07:29 | 36.69887 | -4.33964 | 22029 ft | 426 kts | 53° |
| 2026-04-24 07:29 | 36.71647 | -4.30975 | 22441 ft | 428 kts | 53° |
| 2026-04-24 07:29 | 36.73392 | -4.28010 | 22825 ft | 431 kts | 53° |
| 2026-04-24 07:29 | 36.75170 | -4.24986 | 23192 ft | 434 kts | 53° |
| 2026-04-24 07:30 | 36.76981 | -4.21898 | 23547 ft | 437 kts | 53° |
| 2026-04-24 07:30 | 36.78758 | -4.18864 | 23899 ft | 440 kts | 53° |
| 2026-04-24 07:30 | 36.80568 | -4.15776 | 24269 ft | 441 kts | 53° |
| 2026-04-24 07:30 | 36.82385 | -4.12679 | 24622 ft | 443 kts | 53° |
| 2026-04-24 07:31 | 36.84216 | -4.09561 | 24947 ft | 446 kts | 53° |
| 2026-04-24 07:31 | 36.86050 | -4.06426 | 25247 ft | 449 kts | 53° |
| 2026-04-24 07:31 | 36.87899 | -4.03259 | 25517 ft | 452 kts | 54° |
| 2026-04-24 07:31 | 36.89763 | -4.00060 | 25756 ft | 457 kts | 54° |
| 2026-04-24 07:32 | 36.91641 | -3.96834 | 26021 ft | 460 kts | 54° |
| 2026-04-24 07:32 | 36.93526 | -3.93600 | 26332 ft | 461 kts | 54° |
| 2026-04-24 07:32 | 36.95420 | -3.90350 | 26629 ft | 463 kts | 54° |
| 2026-04-24 07:32 | 36.97315 | -3.87093 | 26920 ft | 464 kts | 54° |
| 2026-04-24 07:33 | 36.99221 | -3.83814 | 27176 ft | 466 kts | 54° |
| 2026-04-24 07:33 | 37.01131 | -3.80525 | 27392 ft | 469 kts | 54° |
| 2026-04-24 07:33 | 37.03052 | -3.77210 | 27626 ft | 470 kts | 54° |
| 2026-04-24 07:33 | 37.04970 | -3.73891 | 27876 ft | 472 kts | 54° |
| 2026-04-24 07:34 | 37.06893 | -3.70559 | 28129 ft | 472 kts | 54° |
| 2026-04-24 07:34 | 37.08814 | -3.67227 | 28464 ft | 470 kts | 54° |
| 2026-04-24 07:34 | 37.10081 | -3.65035 | 28679 ft | 470 kts | 53° |
| 2026-04-24 07:34 | 37.12949 | -3.60977 | 29093 ft | 468 kts | 45° |
| 2026-04-24 07:35 | 37.15231 | -3.58050 | 29254 ft | 471 kts | 45° |
| 2026-04-24 07:35 | 37.17512 | -3.55111 | 29564 ft | 469 kts | 45° |
| 2026-04-24 07:35 | 37.19782 | -3.52173 | 29885 ft | 468 kts | 46° |
| 2026-04-24 07:35 | 37.21284 | -3.50226 | 30091 ft | 468 kts | 46° |
| 2026-04-24 07:36 | 37.23543 | -3.47295 | 30379 ft | 468 kts | 46° |
| 2026-04-24 07:36 | 37.25817 | -3.44349 | 30634 ft | 469 kts | 46° |
| 2026-04-24 07:36 | 37.28089 | -3.41411 | 30887 ft | 469 kts | 45° |
| 2026-04-24 07:36 | 37.30360 | -3.38468 | 31182 ft | 468 kts | 46° |
| 2026-04-24 07:37 | 37.32622 | -3.35529 | 31484 ft | 468 kts | 46° |
| 2026-04-24 07:37 | 37.34886 | -3.32588 | 31767 ft | 467 kts | 46° |
| 2026-04-24 07:37 | 37.37144 | -3.29655 | 32074 ft | 466 kts | 46° |
| 2026-04-24 07:37 | 37.39369 | -3.26760 | 32356 ft | 465 kts | 46° |
| 2026-04-24 07:38 | 37.41620 | -3.23830 | 32663 ft | 464 kts | 46° |
| 2026-04-24 07:38 | 37.43858 | -3.20914 | 32950 ft | 463 kts | 46° |
| 2026-04-24 07:38 | 37.46091 | -3.17998 | 33237 ft | 461 kts | 46° |
| 2026-04-24 07:38 | 37.48311 | -3.15093 | 33525 ft | 461 kts | 46° |
| 2026-04-24 07:39 | 37.50532 | -3.12186 | 33801 ft | 460 kts | 46° |
| 2026-04-24 07:39 | 37.52747 | -3.09282 | 34074 ft | 459 kts | 46° |
| 2026-04-24 07:39 | 37.54954 | -3.06384 | 34338 ft | 458 kts | 46° |
| 2026-04-24 07:39 | 37.57160 | -3.03488 | 34601 ft | 458 kts | 46° |
| 2026-04-24 07:40 | 37.59364 | -3.00595 | 34855 ft | 457 kts | 46° |
| 2026-04-24 07:40 | 37.61565 | -2.97705 | 35099 ft | 456 kts | 46° |
| 2026-04-24 07:40 | 37.63767 | -2.94813 | 35309 ft | 456 kts | 46° |
| 2026-04-24 07:40 | 37.65969 | -2.91919 | 35518 ft | 456 kts | 46° |
| 2026-04-24 07:41 | 37.68166 | -2.89028 | 35719 ft | 456 kts | 46° |
| 2026-04-24 07:41 | 37.70361 | -2.86134 | 35918 ft | 456 kts | 46° |
| 2026-04-24 07:41 | 37.74737 | -2.80346 | 36009 ft | 459 kts | 46° |
| 2026-04-24 07:42 | 37.79156 | -2.74493 | 36008 ft | 460 kts | 46° |
| 2026-04-24 07:42 | 37.83585 | -2.68633 | 36008 ft | 461 kts | 46° |
| 2026-04-24 07:43 | 37.88020 | -2.62749 | 36008 ft | 462 kts | 46° |
| 2026-04-24 07:43 | 37.92459 | -2.56845 | 36010 ft | 464 kts | 46° |
| 2026-04-24 07:44 | 37.96945 | -2.50861 | 36010 ft | 471 kts | 46° |
| 2026-04-24 07:44 | 38.01442 | -2.44849 | 36008 ft | 475 kts | 46° |
| 2026-04-24 07:45 | 38.06014 | -2.38745 | 36008 ft | 479 kts | 46° |
| 2026-04-24 07:45 | 38.10610 | -2.32586 | 36009 ft | 481 kts | 46° |
| 2026-04-24 07:46 | 38.15215 | -2.26401 | 36011 ft | 482 kts | 46° |
| 2026-04-24 07:46 | 38.19817 | -2.20201 | 36022 ft | 482 kts | 46° |
| 2026-04-24 07:47 | 38.24073 | -2.13604 | 36023 ft | 483 kts | 51° |
| 2026-04-24 07:47 | 38.28235 | -2.06884 | 36028 ft | 483 kts | 51° |
| 2026-04-24 07:48 | 38.32397 | -2.00172 | 36037 ft | 482 kts | 52° |
| 2026-04-24 07:48 | 38.36508 | -1.93496 | 36046 ft | 481 kts | 52° |
| 2026-04-24 07:49 | 38.40634 | -1.86783 | 36036 ft | 480 kts | 52° |
| 2026-04-24 07:49 | 38.44752 | -1.80084 | 36035 ft | 479 kts | 52° |
| 2026-04-24 07:50 | 38.48852 | -1.73397 | 36035 ft | 478 kts | 52° |
| 2026-04-24 07:50 | 38.52946 | -1.66698 | 36031 ft | 478 kts | 52° |
| 2026-04-24 07:51 | 38.57039 | -1.59997 | 36031 ft | 478 kts | 52° |
| 2026-04-24 07:51 | 38.61134 | -1.53295 | 36029 ft | 478 kts | 52° |
| 2026-04-24 07:52 | 38.65217 | -1.46575 | 36028 ft | 478 kts | 52° |
| 2026-04-24 07:52 | 38.69272 | -1.39874 | 36024 ft | 479 kts | 52° |
| 2026-04-24 07:53 | 38.73359 | -1.33124 | 36005 ft | 479 kts | 52° |
| 2026-04-24 07:53 | 38.77437 | -1.26390 | 36011 ft | 478 kts | 52° |
| 2026-04-24 07:54 | 38.81516 | -1.19645 | 36008 ft | 478 kts | 52° |
| 2026-04-24 07:54 | 38.85579 | -1.12886 | 36008 ft | 478 kts | 52° |
| 2026-04-24 07:55 | 38.89632 | -1.06122 | 36009 ft | 477 kts | 52° |
| 2026-04-24 07:55 | 38.93660 | -0.99401 | 36009 ft | 478 kts | 52° |
| 2026-04-24 07:56 | 38.97719 | -0.92629 | 36007 ft | 478 kts | 52° |
| 2026-04-24 07:56 | 39.01775 | -0.85852 | 36014 ft | 478 kts | 52° |
| 2026-04-24 07:57 | 39.05829 | -0.79061 | 36023 ft | 478 kts | 50° |
| 2026-04-24 07:57 | 39.10653 | -0.73213 | 36025 ft | 476 kts | 39° |
| 2026-04-24 07:58 | 39.15767 | -0.67785 | 36028 ft | 476 kts | 39° |
| 2026-04-24 07:58 | 39.20863 | -0.62350 | 36027 ft | 475 kts | 39° |
| 2026-04-24 07:59 | 39.25920 | -0.56946 | 36028 ft | 475 kts | 39° |
| 2026-04-24 07:59 | 39.31039 | -0.51573 | 36027 ft | 474 kts | 37° |
| 2026-04-24 08:00 | 39.36312 | -0.46472 | 36025 ft | 474 kts | 36° |
| 2026-04-24 08:00 | 39.41634 | -0.41440 | 36025 ft | 473 kts | 36° |
| 2026-04-24 08:01 | 39.46918 | -0.36343 | 36024 ft | 473 kts | 37° |
| 2026-04-24 08:01 | 39.52162 | -0.31198 | 36023 ft | 473 kts | 37° |
| 2026-04-24 08:02 | 39.57403 | -0.26043 | 36021 ft | 472 kts | 37° |
| 2026-04-24 08:02 | 39.62607 | -0.20939 | 36020 ft | 472 kts | 37° |
| 2026-04-24 08:03 | 39.67883 | -0.15759 | 36018 ft | 472 kts | 37° |
| 2026-04-24 08:03 | 39.73116 | -0.10605 | 36018 ft | 472 kts | 37° |
| 2026-04-24 08:04 | 39.78317 | -0.05473 | 36017 ft | 472 kts | 37° |
| 2026-04-24 08:04 | 39.83496 | -0.00209 | 36005 ft | 472 kts | 43° |
| 2026-04-24 08:05 | 39.88034 | 0.05976 | 36008 ft | 472 kts | 47° |
| 2026-04-24 08:05 | 39.92529 | 0.12224 | 36008 ft | 472 kts | 46° |
| 2026-04-24 08:06 | 39.97026 | 0.18476 | 36008 ft | 472 kts | 46° |
| 2026-04-24 08:06 | 40.01509 | 0.24729 | 36009 ft | 472 kts | 47° |
| 2026-04-24 08:07 | 40.05965 | 0.30961 | 36010 ft | 472 kts | 47° |
| 2026-04-24 08:07 | 40.10443 | 0.37234 | 36011 ft | 472 kts | 47° |
| 2026-04-24 08:08 | 40.14927 | 0.43523 | 36012 ft | 472 kts | 47° |
| 2026-04-24 08:09 | 40.21632 | 0.52963 | 36013 ft | 472 kts | 47° |
| 2026-04-24 08:09 | 40.26108 | 0.59270 | 36014 ft | 472 kts | 47° |
| 2026-04-24 08:10 | 40.30551 | 0.65538 | 36014 ft | 472 kts | 47° |
| 2026-04-24 08:10 | 40.35018 | 0.71858 | 36009 ft | 472 kts | 47° |
| 2026-04-24 08:11 | 40.39470 | 0.78184 | 36008 ft | 472 kts | 47° |
| 2026-04-24 08:11 | 40.43921 | 0.84516 | 36009 ft | 472 kts | 47° |
| 2026-04-24 08:12 | 40.48380 | 0.90866 | 36012 ft | 472 kts | 47° |
| 2026-04-24 08:12 | 40.52826 | 0.97218 | 36009 ft | 472 kts | 47° |
| 2026-04-24 08:13 | 40.57271 | 1.03586 | 36009 ft | 472 kts | 47° |
| 2026-04-24 08:13 | 40.61678 | 1.09927 | 36011 ft | 472 kts | 47° |
| 2026-04-24 08:14 | 40.66112 | 1.16310 | 36013 ft | 472 kts | 47° |
| 2026-04-24 08:14 | 40.70545 | 1.22705 | 36011 ft | 472 kts | 47° |
| 2026-04-24 08:15 | 40.74974 | 1.29100 | 36011 ft | 472 kts | 47° |
| 2026-04-24 08:15 | 40.79403 | 1.35510 | 36015 ft | 472 kts | 47° |
| 2026-04-24 08:16 | 40.83802 | 1.41878 | 36011 ft | 472 kts | 47° |
| 2026-04-24 08:16 | 40.88221 | 1.48298 | 36011 ft | 472 kts | 47° |
| 2026-04-24 08:17 | 40.92630 | 1.54729 | 36011 ft | 472 kts | 47° |
| 2026-04-24 08:17 | 40.97048 | 1.61173 | 36011 ft | 472 kts | 47° |
| 2026-04-24 08:18 | 41.01456 | 1.67617 | 36011 ft | 472 kts | 47° |
| 2026-04-24 08:18 | 41.05856 | 1.74078 | 36011 ft | 472 kts | 48° |
| 2026-04-24 08:19 | 41.10228 | 1.80510 | 36011 ft | 472 kts | 48° |
| 2026-04-24 08:19 | 41.14630 | 1.86983 | 36012 ft | 472 kts | 48° |
| 2026-04-24 08:20 | 41.19031 | 1.93472 | 36012 ft | 472 kts | 48° |
| 2026-04-24 08:20 | 41.23416 | 1.99966 | 36012 ft | 472 kts | 48° |
| 2026-04-24 08:21 | 41.27810 | 2.06469 | 36012 ft | 472 kts | 48° |
| 2026-04-24 08:21 | 41.31650 | 2.13514 | 36009 ft | 472 kts | 63° |
| 2026-04-24 08:22 | 41.33944 | 2.20117 | 36007 ft | 472 kts | 65° |
| 2026-04-24 08:22 | 41.36704 | 2.28053 | 36009 ft | 472 kts | 65° |
| 2026-04-24 08:23 | 41.39469 | 2.35995 | 36008 ft | 472 kts | 65° |
| 2026-04-24 08:23 | 41.42222 | 2.43943 | 36010 ft | 472 kts | 65° |
| 2026-04-24 08:24 | 41.44947 | 2.51855 | 36010 ft | 472 kts | 65° |
| 2026-04-24 08:24 | 41.47685 | 2.59815 | 36010 ft | 472 kts | 65° |
| 2026-04-24 08:25 | 41.50422 | 2.67787 | 36008 ft | 472 kts | 65° |
| 2026-04-24 08:25 | 41.53148 | 2.75782 | 36011 ft | 472 kts | 65° |
| 2026-04-24 08:26 | 41.55861 | 2.83774 | 36010 ft | 472 kts | 65° |
| 2026-04-24 08:26 | 41.58582 | 2.91775 | 36009 ft | 472 kts | 65° |
| 2026-04-24 08:27 | 41.61292 | 2.99767 | 36008 ft | 472 kts | 65° |
| 2026-04-24 08:27 | 41.63971 | 3.07735 | 36008 ft | 472 kts | 65° |
| 2026-04-24 08:28 | 41.66667 | 3.15754 | 36008 ft | 472 kts | 65° |
| 2026-04-24 08:28 | 41.69363 | 3.23781 | 36010 ft | 472 kts | 66° |
| 2026-04-24 08:29 | 41.72047 | 3.31808 | 36009 ft | 472 kts | 66° |
| 2026-04-24 08:29 | 41.74727 | 3.39845 | 36009 ft | 472 kts | 66° |
| 2026-04-24 08:30 | 41.77392 | 3.47842 | 36007 ft | 472 kts | 66° |
| 2026-04-24 08:30 | 41.80065 | 3.55896 | 36009 ft | 472 kts | 66° |
| 2026-04-24 08:31 | 41.82734 | 3.63956 | 36008 ft | 473 kts | 66° |
| 2026-04-24 08:31 | 41.85393 | 3.72014 | 36013 ft | 473 kts | 66° |
| 2026-04-24 08:32 | 41.88047 | 3.80084 | 36013 ft | 473 kts | 66° |
| 2026-04-24 08:32 | 41.90697 | 3.88158 | 36013 ft | 473 kts | 66° |
| 2026-04-24 08:33 | 41.93333 | 3.96240 | 36010 ft | 472 kts | 66° |
| 2026-04-24 08:33 | 41.95967 | 4.04331 | 36010 ft | 472 kts | 66° |
| 2026-04-24 08:34 | 41.98598 | 4.12433 | 36008 ft | 472 kts | 66° |
| 2026-04-24 08:34 | 42.01219 | 4.20535 | 36008 ft | 472 kts | 66° |
| 2026-04-24 08:35 | 42.03818 | 4.28594 | 36010 ft | 472 kts | 66° |
| 2026-04-24 08:35 | 42.06440 | 4.36695 | 36008 ft | 472 kts | 64° |
| 2026-04-24 08:36 | 42.10135 | 4.43963 | 36011 ft | 472 kts | 45° |
| 2026-04-24 08:36 | 42.15000 | 4.49914 | 36013 ft | 472 kts | 41° |
| 2026-04-24 08:37 | 42.19900 | 4.55820 | 36010 ft | 472 kts | 41° |
| 2026-04-24 08:37 | 42.24765 | 4.61702 | 36008 ft | 472 kts | 41° |
| 2026-04-24 08:38 | 42.29656 | 4.67621 | 36008 ft | 472 kts | 41° |
| 2026-04-24 08:38 | 42.34547 | 4.73546 | 36008 ft | 472 kts | 41° |
| 2026-04-24 08:39 | 42.39434 | 4.79477 | 36008 ft | 472 kts | 41° |
| 2026-04-24 08:39 | 42.44313 | 4.85424 | 36008 ft | 472 kts | 42° |
| 2026-04-24 08:40 | 42.49192 | 4.91381 | 36009 ft | 472 kts | 42° |
| 2026-04-24 08:40 | 42.54072 | 4.97348 | 36012 ft | 472 kts | 43° |
| 2026-04-24 08:41 | 42.58190 | 5.04249 | 36013 ft | 472 kts | 57° |
| 2026-04-24 08:41 | 42.61724 | 5.11692 | 36008 ft | 472 kts | 57° |
| 2026-04-24 08:42 | 42.65288 | 5.19187 | 36009 ft | 472 kts | 57° |
| 2026-04-24 08:42 | 42.68853 | 5.26692 | 36009 ft | 472 kts | 57° |
| 2026-04-24 08:43 | 42.72421 | 5.34201 | 36008 ft | 472 kts | 57° |
| 2026-04-24 08:43 | 42.75981 | 5.41719 | 36008 ft | 472 kts | 57° |
| 2026-04-24 08:44 | 42.79521 | 5.49252 | 36008 ft | 472 kts | 57° |
| 2026-04-24 08:44 | 42.83041 | 5.56745 | 36009 ft | 472 kts | 57° |
| 2026-04-24 08:45 | 42.86578 | 5.64288 | 36009 ft | 472 kts | 57° |
| 2026-04-24 08:45 | 42.90112 | 5.71842 | 36011 ft | 472 kts | 57° |
| 2026-04-24 08:46 | 42.93639 | 5.79408 | 36010 ft | 472 kts | 57° |
| 2026-04-24 08:46 | 42.97160 | 5.86981 | 36010 ft | 472 kts | 57° |
| 2026-04-24 08:47 | 43.00672 | 5.94567 | 36009 ft | 472 kts | 57° |
| 2026-04-24 08:47 | 43.04182 | 6.02167 | 36011 ft | 472 kts | 57° |
| 2026-04-24 08:48 | 43.07687 | 6.09763 | 36011 ft | 472 kts | 58° |
| 2026-04-24 08:48 | 43.11171 | 6.17326 | 36012 ft | 472 kts | 58° |
| 2026-04-24 08:49 | 43.14666 | 6.24938 | 36008 ft | 472 kts | 58° |
| 2026-04-24 08:49 | 43.18158 | 6.32576 | 36008 ft | 473 kts | 58° |
| 2026-04-24 08:50 | 43.21658 | 6.40241 | 36008 ft | 474 kts | 58° |
| 2026-04-24 08:50 | 43.25158 | 6.47924 | 36011 ft | 474 kts | 58° |
| 2026-04-24 08:51 | 43.28646 | 6.55600 | 36008 ft | 473 kts | 58° |
| 2026-04-24 08:51 | 43.32097 | 6.63222 | 36008 ft | 473 kts | 58° |
| 2026-04-24 08:52 | 43.35571 | 6.70910 | 36009 ft | 473 kts | 58° |
| 2026-04-24 08:52 | 43.39034 | 6.78598 | 36008 ft | 473 kts | 58° |
| 2026-04-24 08:53 | 43.42494 | 6.86293 | 36010 ft | 473 kts | 58° |
| 2026-04-24 08:53 | 43.45951 | 6.93995 | 36012 ft | 473 kts | 58° |
| 2026-04-24 08:54 | 43.49401 | 7.01712 | 36016 ft | 473 kts | 58° |
| 2026-04-24 08:54 | 43.52852 | 7.09448 | 36009 ft | 473 kts | 58° |
| 2026-04-24 08:55 | 43.56271 | 7.17118 | 36008 ft | 473 kts | 58° |
| 2026-04-24 08:55 | 43.59202 | 7.25187 | 36006 ft | 472 kts | 76° |
| 2026-04-24 08:56 | 43.59848 | 7.34181 | 36008 ft | 472 kts | 86° |
| 2026-04-24 08:56 | 43.60188 | 7.43249 | 36008 ft | 472 kts | 87° |
| 2026-04-24 08:57 | 43.60515 | 7.52303 | 36013 ft | 473 kts | 87° |
| 2026-04-24 08:57 | 43.60851 | 7.61374 | 36008 ft | 473 kts | 87° |
| 2026-04-24 08:58 | 43.61192 | 7.70433 | 36011 ft | 473 kts | 87° |
| 2026-04-24 08:58 | 43.61516 | 7.79500 | 36008 ft | 473 kts | 87° |
| 2026-04-24 08:59 | 43.61829 | 7.88508 | 36008 ft | 472 kts | 87° |
| 2026-04-24 08:59 | 43.62142 | 7.97587 | 36010 ft | 473 kts | 87° |
| 2026-04-24 09:00 | 43.62454 | 8.06664 | 36010 ft | 473 kts | 87° |
| 2026-04-24 09:00 | 43.62759 | 8.15683 | 36013 ft | 473 kts | 87° |
| 2026-04-24 09:01 | 43.63046 | 8.24754 | 36015 ft | 473 kts | 88° |
| 2026-04-24 09:01 | 43.63317 | 8.33835 | 36009 ft | 473 kts | 88° |
| 2026-04-24 09:02 | 43.63597 | 8.42902 | 36013 ft | 473 kts | 87° |
| 2026-04-24 09:02 | 43.63875 | 8.51973 | 36008 ft | 473 kts | 88° |
| 2026-04-24 09:03 | 43.64132 | 8.61041 | 36008 ft | 473 kts | 88° |
| 2026-04-24 09:03 | 43.64378 | 8.70052 | 36009 ft | 473 kts | 88° |
| 2026-04-24 09:04 | 43.64632 | 8.79125 | 36008 ft | 473 kts | 88° |
| 2026-04-24 09:04 | 43.64883 | 8.88197 | 36006 ft | 469 kts | 88° |
| 2026-04-24 09:05 | 43.65109 | 8.97063 | 36008 ft | 457 kts | 88° |
| 2026-04-24 09:05 | 43.65322 | 9.05771 | 35292 ft | 458 kts | 88° |
| 2026-04-24 09:05 | 43.65430 | 9.10217 | 34098 ft | 466 kts | 88° |
| 2026-04-24 09:06 | 43.65537 | 9.14695 | 33178 ft | 466 kts | 88° |
| 2026-04-24 09:06 | 43.65643 | 9.19174 | 32164 ft | 468 kts | 88° |
| 2026-04-24 09:06 | 43.65748 | 9.23674 | 31103 ft | 469 kts | 88° |
| 2026-04-24 09:06 | 43.65854 | 9.28182 | 30032 ft | 471 kts | 88° |
| 2026-04-24 09:07 | 43.65960 | 9.32721 | 28869 ft | 472 kts | 88° |
| 2026-04-24 09:07 | 43.66061 | 9.37263 | 27614 ft | 475 kts | 88° |
| 2026-04-24 09:07 | 43.66259 | 9.46411 | 25091 ft | 477 kts | 88° |
| 2026-04-24 09:08 | 43.66353 | 9.50968 | 24148 ft | 471 kts | 88° |
| 2026-04-24 09:08 | 43.66441 | 9.55449 | 23260 ft | 464 kts | 88° |
| 2026-04-24 09:08 | 43.66529 | 9.59873 | 22435 ft | 458 kts | 88° |
| 2026-04-24 09:08 | 43.66618 | 9.64235 | 21629 ft | 452 kts | 88° |
| 2026-04-24 09:09 | 43.66705 | 9.68547 | 20847 ft | 447 kts | 88° |
| 2026-04-24 09:09 | 43.66790 | 9.72816 | 20089 ft | 441 kts | 88° |
| 2026-04-24 09:09 | 43.66868 | 9.77026 | 19353 ft | 436 kts | 88° |
| 2026-04-24 09:09 | 43.66918 | 9.79795 | 18876 ft | 433 kts | 89° |
| 2026-04-24 09:10 | 43.66988 | 9.83923 | 18182 ft | 428 kts | 89° |
| 2026-04-24 09:10 | 43.67055 | 9.88008 | 17527 ft | 422 kts | 89° |
| 2026-04-24 09:10 | 43.67121 | 9.92037 | 16893 ft | 417 kts | 89° |
| 2026-04-24 09:10 | 43.67187 | 9.96020 | 16287 ft | 412 kts | 89° |
| 2026-04-24 09:11 | 43.67252 | 9.99961 | 15701 ft | 407 kts | 89° |
| 2026-04-24 09:11 | 43.67317 | 10.03845 | 15128 ft | 402 kts | 89° |
| 2026-04-24 09:11 | 43.67378 | 10.07652 | 14565 ft | 398 kts | 89° |
| 2026-04-24 09:11 | 43.67439 | 10.11443 | 13992 ft | 393 kts | 89° |
| 2026-04-24 09:12 | 43.67494 | 10.15201 | 13403 ft | 389 kts | 89° |
| 2026-04-24 09:12 | 43.67547 | 10.18921 | 12784 ft | 385 kts | 89° |
| 2026-04-24 09:12 | 43.67597 | 10.22610 | 12171 ft | 381 kts | 89° |
| 2026-04-24 09:12 | 43.67648 | 10.26265 | 11491 ft | 378 kts | 89° |
| 2026-04-24 09:13 | 43.67702 | 10.29876 | 11050 ft | 370 kts | 89° |
| 2026-04-24 09:13 | 43.67752 | 10.33334 | 10922 ft | 352 kts | 89° |
| 2026-04-24 09:13 | 43.67798 | 10.36645 | 10795 ft | 337 kts | 89° |
| 2026-04-24 09:13 | 43.67841 | 10.39812 | 10668 ft | 323 kts | 89° |
| 2026-04-24 09:14 | 43.67880 | 10.42810 | 10544 ft | 310 kts | 89° |
| 2026-04-24 09:14 | 43.67917 | 10.45735 | 10402 ft | 299 kts | 89° |
| 2026-04-24 09:14 | 43.67952 | 10.48581 | 10131 ft | 294 kts | 89° |
| 2026-04-24 09:14 | 43.67985 | 10.51390 | 9912 ft | 291 kts | 89° |
| 2026-04-24 09:15 | 43.68018 | 10.54181 | 9788 ft | 290 kts | 89° |
| 2026-04-24 09:15 | 43.68051 | 10.56968 | 9663 ft | 290 kts | 89° |
| 2026-04-24 09:15 | 43.68084 | 10.59767 | 9270 ft | 293 kts | 89° |
| 2026-04-24 09:15 | 43.68116 | 10.62577 | 8910 ft | 290 kts | 89° |
| 2026-04-24 09:16 | 43.68146 | 10.65353 | 8500 ft | 289 kts | 89° |
| 2026-04-24 09:16 | 43.68174 | 10.68107 | 7906 ft | 285 kts | 89° |
| 2026-04-24 09:16 | 43.68202 | 10.70835 | 7250 ft | 284 kts | 89° |
| 2026-04-24 09:16 | 43.68228 | 10.73557 | 6720 ft | 282 kts | 89° |
| 2026-04-24 09:17 | 43.68254 | 10.76217 | 6162 ft | 278 kts | 89° |
| 2026-04-24 09:17 | 43.68279 | 10.78877 | 5455 ft | 276 kts | 89° |
| 2026-04-24 09:17 | 43.68302 | 10.81511 | 4764 ft | 273 kts | 89° |
| 2026-04-24 09:17 | 43.68324 | 10.84114 | 4162 ft | 267 kts | 89° |
| 2026-04-24 09:18 | 43.68346 | 10.86603 | 4067 ft | 251 kts | 89° |
| 2026-04-24 09:18 | 43.68372 | 10.88969 | 3842 ft | 244 kts | 89° |
| 2026-04-24 09:18 | 43.68399 | 10.91285 | 3587 ft | 238 kts | 89° |
| 2026-04-24 09:18 | 43.68425 | 10.93566 | 3308 ft | 235 kts | 89° |
| 2026-04-24 09:19 | 43.68450 | 10.95805 | 3033 ft | 232 kts | 89° |
| 2026-04-24 09:19 | 43.68475 | 10.98004 | 2850 ft | 225 kts | 89° |
| 2026-04-24 09:19 | 43.68539 | 11.00100 | 2817 ft | 210 kts | 80° |
| 2026-04-24 09:19 | 43.69024 | 11.01935 | 2818 ft | 200 kts | 57° |
| 2026-04-24 09:20 | 43.69886 | 11.03390 | 2827 ft | 197 kts | 47° |
| 2026-04-24 09:20 | 43.71083 | 11.05224 | 2820 ft | 183 kts | 47° |
| 2026-04-24 09:20 | 43.71641 | 11.06081 | 2686 ft | 179 kts | 47° |
| 2026-04-24 09:20 | 43.72442 | 11.07311 | 2485 ft | 165 kts | 47° |
| 2026-04-24 09:21 | 43.73174 | 11.08437 | 2299 ft | 151 kts | 47° |
| 2026-04-24 09:21 | 43.73857 | 11.09497 | 2039 ft | 145 kts | 48° |
| 2026-04-24 09:21 | 43.74511 | 11.10537 | 1798 ft | 142 kts | 48° |
| 2026-04-24 09:21 | 43.75171 | 11.11541 | 1558 ft | 140 kts | 47° |
| 2026-04-24 09:22 | 43.75819 | 11.12549 | 1400 ft | 140 kts | 48° |
| 2026-04-24 09:22 | 43.76464 | 11.13551 | 1293 ft | 139 kts | 47° |
| 2026-04-24 09:22 | 43.77129 | 11.14530 | 1183 ft | 139 kts | 46° |
| 2026-04-24 09:22 | 43.77793 | 11.15506 | 1060 ft | 139 kts | 46° |
| 2026-04-24 09:23 | 43.78436 | 11.16506 | 807 ft | 139 kts | 49° |
| 2026-04-24 09:23 | 43.79057 | 11.17503 | 634 ft | 138 kts | 47° |
| 2026-04-24 09:23 | 43.79696 | 11.18488 | 427 ft | 137 kts | 48° |
| 2026-04-24 09:23 | 43.80331 | 11.19476 | 224 ft | 137 kts | 47° |
| 2026-04-24 09:24 | 43.80947 | 11.20413 | 136 ft | 116 kts | 47° |
| 2026-04-24 09:24 | 43.81281 | 11.20932 | 146 ft | 29 kts | 49° |
| 2026-04-24 09:24 | 43.81329 | 11.21006 | 146 ft | 16 kts | 48° |
| 2026-04-24 09:24 | 43.81414 | 11.21140 | 148 ft | 19 kts | 51° |
| 2026-04-24 09:25 | 43.81482 | 11.21302 | 148 ft | 20 kts | 62° |
| 2026-04-24 09:25 | 43.81516 | 11.21313 | 147 ft | 3 kts | 259° |
| 2026-04-24 09:25 | 43.81469 | 11.21230 | 148 ft | 16 kts | 229° |
| 2026-04-24 09:25 | 43.81376 | 11.21079 | 147 ft | 25 kts | 230° |
| 2026-04-24 09:26 | 43.81238 | 11.20869 | 143 ft | 34 kts | 227° |
| 2026-04-24 09:26 | 43.81062 | 11.20601 | 135 ft | 39 kts | 228° |
| 2026-04-24 09:26 | 43.80879 | 11.20315 | 133 ft | 40 kts | 229° |
| 2026-04-24 09:26 | 43.80700 | 11.20047 | 132 ft | 29 kts | 215° |
| 2026-04-24 09:27 | 43.80507 | 11.19977 | 132 ft | 29 kts | 197° |
| 2026-04-24 09:27 | 43.80388 | 11.19980 | 128 ft | 15 kts | 187° |
| 2026-04-24 09:27 | 43.80303 | 11.19978 | 132 ft | 0 kts | 180° |